createdAt,value
2018-12-26T00:02:03.044Z,16.03
2018-12-26T00:04:30.552Z,16.10
2018-12-26T00:06:58.066Z,16.80
2018-12-26T00:09:25.561Z,15.27
2018-12-26T00:11:53.034Z,16.33
2018-12-26T00:14:20.581Z,16.23
2018-12-26T00:16:48.055Z,15.10
2018-12-26T00:19:15.572Z,15.43
2018-12-26T00:21:43.098Z,14.33
2018-12-26T00:24:10.640Z,15.10
2018-12-26T00:26:38.124Z,15.93
2018-12-26T00:29:05.648Z,16.87
2018-12-26T00:31:33.192Z,17.17
2018-12-26T00:34:00.755Z,18.37
2018-12-26T00:36:28.259Z,19.00
2018-12-26T00:38:55.836Z,23.13
2018-12-26T00:41:23.362Z,22.40
2018-12-26T00:43:50.865Z,22.70
2018-12-26T00:46:18.601Z,22.83
2018-12-26T00:48:46.112Z,24.73
2018-12-26T00:51:13.586Z,23.80
2018-12-26T00:53:41.098Z,25.43
2018-12-26T00:56:10.586Z,25.23
2018-12-26T00:58:38.168Z,26.60
2018-12-26T01:01:05.657Z,23.83
2018-12-26T01:03:33.185Z,23.93
2018-12-26T01:06:00.654Z,23.90
2018-12-26T01:08:28.176Z,22.07
2018-12-26T01:10:55.692Z,22.27
2018-12-26T01:13:23.174Z,22.07
2018-12-26T01:15:50.646Z,21.27
2018-12-26T01:18:18.190Z,21.33
2018-12-26T01:20:45.657Z,20.93
2018-12-26T01:23:13.201Z,20.00
2018-12-26T01:25:40.769Z,20.30
2018-12-26T01:28:08.227Z,20.07
2018-12-26T01:30:35.731Z,19.50
2018-12-26T01:33:03.294Z,19.70
2018-12-26T01:35:30.864Z,19.17
2018-12-26T01:37:58.399Z,17.50
2018-12-26T01:40:25.910Z,18.83
2018-12-26T01:42:53.413Z,19.97
2018-12-26T01:45:20.959Z,19.33
2018-12-26T01:47:48.475Z,18.97
2018-12-26T01:50:15.983Z,17.80
2018-12-26T01:52:43.449Z,18.57
2018-12-26T01:55:10.982Z,19.00
2018-12-26T01:57:38.464Z,16.93
2018-12-26T02:00:06.093Z,18.47
2018-12-26T02:02:33.560Z,18.57
2018-12-26T02:05:01.062Z,19.40
2018-12-26T02:07:28.593Z,18.20
2018-12-26T02:09:56.083Z,17.13
2018-12-26T02:12:26.827Z,17.43
2018-12-26T02:14:54.495Z,17.50
2018-12-26T02:17:21.991Z,19.53
2018-12-26T02:19:49.527Z,21.27
2018-12-26T02:22:16.991Z,19.47
2018-12-26T02:24:44.496Z,19.80
2018-12-26T02:27:12.024Z,22.37
2018-12-26T02:29:39.504Z,19.27
2018-12-26T02:32:07.041Z,20.03
2018-12-26T02:34:34.983Z,18.67
2018-12-26T02:37:02.471Z,19.27
2018-12-26T02:39:29.943Z,19.50
2018-12-26T02:41:57.775Z,19.30
2018-12-26T02:44:25.303Z,20.17
2018-12-26T02:46:52.798Z,19.27
2018-12-26T02:49:20.342Z,19.77
2018-12-26T02:51:47.902Z,19.07
2018-12-26T02:54:15.402Z,18.93
2018-12-26T02:56:47.782Z,17.53
2018-12-26T02:59:12.192Z,18.00
2018-12-26T03:01:39.662Z,18.13
2018-12-26T03:04:07.144Z,19.40
2018-12-26T03:06:35.594Z,20.77
2018-12-26T03:09:06.249Z,20.50
2018-12-26T03:11:34.054Z,20.47
2018-12-26T03:14:43.301Z,24.63
2018-12-26T03:17:10.973Z,21.97
2018-12-26T03:19:38.704Z,22.90
2018-12-26T03:22:06.253Z,25.23
2018-12-26T03:24:33.934Z,24.07
2018-12-26T03:27:01.741Z,23.33
2018-12-26T03:29:29.206Z,23.67
2018-12-26T03:31:56.889Z,24.17
2018-12-26T03:34:24.635Z,23.37
2018-12-26T03:36:53.930Z,22.60
2018-12-26T03:39:21.774Z,22.90
2018-12-26T03:41:49.390Z,21.97
2018-12-26T03:44:16.872Z,21.00
2018-12-26T03:46:45.647Z,19.57
2018-12-26T03:49:13.343Z,19.57
2018-12-26T03:51:41.018Z,20.00
2018-12-26T03:54:08.483Z,18.57
2018-12-26T03:56:36.521Z,20.17
2018-12-26T03:59:04.117Z,19.80
2018-12-26T04:01:31.834Z,19.73
2018-12-26T04:03:59.568Z,19.63
2018-12-26T04:06:27.081Z,19.63
2018-12-26T04:08:54.943Z,19.17
2018-12-26T04:11:22.570Z,18.83
2018-12-26T04:13:50.042Z,20.67
2018-12-26T04:16:17.540Z,20.07
2018-12-26T04:18:45.382Z,19.73
2018-12-26T04:21:12.951Z,18.57
2018-12-26T04:23:41.123Z,18.57
2018-12-26T04:26:08.910Z,18.20
2018-12-26T04:28:36.545Z,18.57
2018-12-26T04:31:04.309Z,19.13
2018-12-26T04:33:31.800Z,20.90
2018-12-26T04:35:59.431Z,23.70
2018-12-26T04:38:27.188Z,23.63
2018-12-26T04:40:54.661Z,24.37
2018-12-26T04:43:24.022Z,22.20
2018-12-26T04:45:51.433Z,22.67
2018-12-26T04:48:19.125Z,20.37
2018-12-26T04:50:46.790Z,22.03
2018-12-26T04:53:15.707Z,21.90
2018-12-26T04:55:44.634Z,19.87
2018-12-26T04:58:12.588Z,20.73
2018-12-26T05:00:42.128Z,19.10
2018-12-26T05:03:12.371Z,19.00
2018-12-26T05:05:39.933Z,19.20
2018-12-26T05:08:27.129Z,19.30
2018-12-26T05:10:54.716Z,19.20
2018-12-26T05:13:23.757Z,18.43
2018-12-26T05:15:51.318Z,18.63
2018-12-26T05:18:18.896Z,20.17
2018-12-26T05:20:46.645Z,18.57
2018-12-26T05:23:14.100Z,18.20
2018-12-26T05:25:41.594Z,17.57
2018-12-26T05:28:09.263Z,18.87
2018-12-26T05:30:36.721Z,18.43
2018-12-26T05:33:04.410Z,19.10
2018-12-26T05:35:31.864Z,20.10
2018-12-26T05:37:59.340Z,19.93
2018-12-26T05:40:26.970Z,21.13
2018-12-26T05:42:55.332Z,19.83
2018-12-26T05:45:22.829Z,19.43
2018-12-26T05:47:50.310Z,20.17
2018-12-26T05:50:17.920Z,20.37
2018-12-26T05:52:45.526Z,22.30
2018-12-26T05:55:13.042Z,22.33
2018-12-26T05:57:42.993Z,21.67
2018-12-26T06:00:10.276Z,21.27
2018-12-26T06:02:37.859Z,21.67
2018-12-26T06:05:05.359Z,21.50
2018-12-26T06:07:32.877Z,19.73
2018-12-26T06:10:00.417Z,19.83
2018-12-26T06:12:27.949Z,18.17
2018-12-26T06:14:55.521Z,20.33
2018-12-26T06:17:23.223Z,20.53
2018-12-26T06:19:50.703Z,19.73
2018-12-26T06:22:18.315Z,19.27
2018-12-26T06:24:48.885Z,19.37
2018-12-26T06:27:16.594Z,18.77
2018-12-26T06:29:44.057Z,18.57
2018-12-26T06:32:11.741Z,18.60
2018-12-26T06:34:39.368Z,18.27
2018-12-26T06:37:07.033Z,19.60
2018-12-26T06:39:34.600Z,20.23
2018-12-26T06:42:02.113Z,20.80
2018-12-26T06:44:29.644Z,22.07
2018-12-26T06:46:57.165Z,23.27
2018-12-26T06:49:24.733Z,24.77
2018-12-26T06:51:52.295Z,24.50
2018-12-26T06:54:19.856Z,23.27
2018-12-26T06:56:47.373Z,22.10
2018-12-26T06:59:14.917Z,22.07
2018-12-26T07:01:42.761Z,22.13
2018-12-26T07:04:10.253Z,22.20
2018-12-26T07:06:37.816Z,22.13
2018-12-26T07:09:05.903Z,22.00
2018-12-26T07:11:33.372Z,18.90
2018-12-26T07:14:00.880Z,19.43
2018-12-26T07:16:28.480Z,19.60
2018-12-26T07:18:56.010Z,18.90
2018-12-26T07:21:23.709Z,18.97
2018-12-26T07:23:51.199Z,18.73
2018-12-26T07:26:18.801Z,21.93
2018-12-26T07:28:46.395Z,19.13
2018-12-26T07:31:13.875Z,18.57
2018-12-26T07:33:41.585Z,20.13
2018-12-26T07:36:09.072Z,20.83
2018-12-26T07:38:36.598Z,22.10
2018-12-26T07:41:04.134Z,24.70
2018-12-26T07:43:31.636Z,25.70
2018-12-26T07:45:59.222Z,28.57
2018-12-26T07:48:28.942Z,30.67
2018-12-26T07:50:56.089Z,25.30
2018-12-26T07:53:23.663Z,29.83
2018-12-26T07:55:51.270Z,28.80
2018-12-26T07:58:19.037Z,35.30
2018-12-26T08:00:46.563Z,35.80
2018-12-26T08:03:14.175Z,31.05
2018-12-26T08:05:41.850Z,29.83
2018-12-26T08:08:09.376Z,30.47
2018-12-26T08:10:36.976Z,32.07
2018-12-26T08:13:04.523Z,33.50
2018-12-26T08:15:32.185Z,40.80
2018-12-26T08:17:59.680Z,41.77
2018-12-26T08:20:27.136Z,59.97
2018-12-26T08:22:54.670Z,37.67
2018-12-26T08:25:22.377Z,35.87
2018-12-26T08:27:49.962Z,32.97
2018-12-26T08:30:17.452Z,38.00
2018-12-26T08:32:45.317Z,32.73
2018-12-26T08:35:13.767Z,32.77
2018-12-26T08:37:41.463Z,36.53
2018-12-26T08:40:09.275Z,36.77
2018-12-26T08:42:36.785Z,35.53
2018-12-26T08:45:04.700Z,35.43
2018-12-26T08:47:32.275Z,35.77
2018-12-26T08:49:59.860Z,40.67
2018-12-26T08:52:27.716Z,36.93
2018-12-26T08:54:55.362Z,36.23
2018-12-26T08:57:22.949Z,36.17
2018-12-26T08:59:50.628Z,35.63
2018-12-26T09:02:18.334Z,38.40
2018-12-26T09:04:46.177Z,36.10
2018-12-26T09:07:19.559Z,35.57
2018-12-26T09:09:49.322Z,38.37
2018-12-26T09:12:17.049Z,35.93
2018-12-26T09:14:44.635Z,36.40
2018-12-26T09:17:12.312Z,33.60
2018-12-26T09:19:39.939Z,30.13
2018-12-26T09:22:08.802Z,32.27
2018-12-26T09:24:36.633Z,35.90
2018-12-26T09:27:09.968Z,29.67
2018-12-26T09:29:37.812Z,34.13
2018-12-26T09:32:05.717Z,34.33
2018-12-26T09:34:33.420Z,33.03
2018-12-26T09:37:01.123Z,33.20
2018-12-26T09:39:28.880Z,30.63
2018-12-26T09:41:56.546Z,30.70
2018-12-26T09:44:24.378Z,31.10
2018-12-26T09:46:52.062Z,28.87
2018-12-26T09:49:19.644Z,29.80
2018-12-26T09:51:47.288Z,28.70
2018-12-26T09:54:15.004Z,28.47
2018-12-26T09:56:42.767Z,27.87
2018-12-26T09:59:10.578Z,29.50
2018-12-26T10:01:38.064Z,27.67
2018-12-26T10:04:05.968Z,27.53
2018-12-26T10:06:33.515Z,24.50
2018-12-26T10:09:01.036Z,25.17
2018-12-26T10:11:28.528Z,27.33
2018-12-26T10:13:56.129Z,28.60
2018-12-26T10:16:23.790Z,26.83
2018-12-26T10:18:51.395Z,24.67
2018-12-26T10:21:18.841Z,21.83
2018-12-26T10:23:54.592Z,25.47
2018-12-26T10:26:22.148Z,26.50
2018-12-26T10:28:49.650Z,28.37
2018-12-26T10:31:17.208Z,27.07
2018-12-26T10:33:44.707Z,28.97
2018-12-26T10:36:12.337Z,28.50
2018-12-26T10:38:39.823Z,28.80
2018-12-26T10:41:07.330Z,27.47
2018-12-26T10:43:34.808Z,27.73
2018-12-26T10:46:02.512Z,26.40
2018-12-26T10:48:30.045Z,25.47
2018-12-26T10:50:57.517Z,21.77
2018-12-26T10:53:25.007Z,21.60
2018-12-26T10:55:52.510Z,22.10
2018-12-26T10:58:21.810Z,20.37
2018-12-26T11:00:50.695Z,21.03
2018-12-26T11:03:18.493Z,23.73
2018-12-26T11:05:45.990Z,27.67
2018-12-26T11:08:15.281Z,24.73
2018-12-26T11:10:42.858Z,24.20
2018-12-26T11:13:11.975Z,25.03
2018-12-26T11:15:46.801Z,22.93
2018-12-26T11:18:15.530Z,23.17
2018-12-26T11:20:43.053Z,20.67
2018-12-26T11:23:10.614Z,18.77
2018-12-26T11:25:38.322Z,19.93
2018-12-26T11:28:05.820Z,21.23
2018-12-26T11:30:35.328Z,18.97
2018-12-26T11:33:02.745Z,20.10
2018-12-26T11:35:30.965Z,18.70
2018-12-26T11:37:58.822Z,19.13
2018-12-26T11:40:26.860Z,21.67
2018-12-26T11:42:54.831Z,23.20
2018-12-26T11:45:22.332Z,19.37
2018-12-26T11:47:50.071Z,18.87
2018-12-26T11:50:17.830Z,20.47
2018-12-26T11:52:48.320Z,20.47
2018-12-26T11:55:15.817Z,21.53
2018-12-26T11:57:45.124Z,22.90
2018-12-26T12:00:14.328Z,21.73
2018-12-26T12:02:42.023Z,29.30
2018-12-26T12:05:09.956Z,22.37
2018-12-26T12:07:37.657Z,23.10
2018-12-26T12:10:10.360Z,20.30
2018-12-26T12:12:40.652Z,19.47
2018-12-26T12:15:11.538Z,21.13
2018-12-26T12:17:44.935Z,19.47
2018-12-26T12:20:12.588Z,19.67
2018-12-26T12:22:40.350Z,21.20
2018-12-26T12:25:11.252Z,20.20
2018-12-26T12:27:47.778Z,21.47
2018-12-26T12:30:16.735Z,22.17
2018-12-26T12:32:44.271Z,21.50
2018-12-26T12:35:12.136Z,19.13
2018-12-26T12:37:40.182Z,19.13
2018-12-26T12:40:27.290Z,19.37
2018-12-26T12:42:55.121Z,18.53
2018-12-26T12:45:22.750Z,20.00
2018-12-26T12:47:50.781Z,19.33
2018-12-26T12:50:18.512Z,18.50
2018-12-26T12:52:46.516Z,18.20
2018-12-26T12:55:14.062Z,16.87
2018-12-26T12:57:41.929Z,17.60
2018-12-26T13:00:11.422Z,16.90
2018-12-26T13:02:47.030Z,17.47
2018-12-26T13:05:15.965Z,16.83
2018-12-26T13:07:43.608Z,15.13
2018-12-26T13:10:11.352Z,17.23
2018-12-26T13:12:41.313Z,16.63
2018-12-26T13:15:09.258Z,20.13
2018-12-26T13:17:37.406Z,16.50
2018-12-26T13:20:06.975Z,15.47
2018-12-26T13:22:34.648Z,14.23
2018-12-26T13:25:06.281Z,16.03
2018-12-26T13:27:38.694Z,15.03
2018-12-26T13:30:07.967Z,14.67
2018-12-26T13:32:39.914Z,15.40
2018-12-26T13:35:07.395Z,15.10
2018-12-26T13:37:41.525Z,14.80
2018-12-26T13:40:09.266Z,17.27
2018-12-26T13:42:37.298Z,16.00
2018-12-26T13:45:07.157Z,17.33
2018-12-26T13:47:36.776Z,16.73
2018-12-26T13:50:05.081Z,16.40
2018-12-26T13:52:34.697Z,17.93
2018-12-26T13:55:05.145Z,17.50
2018-12-26T13:57:36.894Z,16.03
2018-12-26T14:00:08.889Z,16.13
2018-12-26T14:02:38.752Z,15.77
2018-12-26T14:05:09.793Z,17.30
2018-12-26T14:07:37.443Z,16.03
2018-12-26T14:10:27.251Z,16.67
2018-12-26T14:12:56.475Z,15.93
2018-12-26T14:15:29.044Z,18.93
2018-12-26T14:17:56.584Z,18.50
2018-12-26T14:20:26.839Z,18.60
2018-12-26T14:22:58.499Z,19.87
2018-12-26T14:25:26.422Z,20.50
2018-12-26T14:27:54.444Z,20.60
2018-12-26T14:30:22.293Z,17.50
2018-12-26T14:32:51.877Z,20.77
2018-12-26T14:35:19.446Z,20.60
2018-12-26T14:37:47.142Z,19.73
2018-12-26T14:40:15.077Z,20.53
2018-12-26T14:42:42.665Z,19.10
2018-12-26T14:45:10.498Z,21.43
2018-12-26T14:47:38.174Z,20.83
2018-12-26T14:50:06.501Z,21.23
2018-12-26T14:52:34.145Z,19.57
2018-12-26T14:55:03.719Z,20.80
2018-12-26T14:57:31.725Z,21.70
2018-12-26T14:59:59.346Z,21.33
2018-12-26T15:02:27.104Z,20.37
2018-12-26T15:04:55.209Z,20.67
2018-12-26T15:07:22.810Z,19.80
2018-12-26T15:09:50.621Z,20.60
2018-12-26T15:12:18.400Z,17.27
2018-12-26T15:14:45.902Z,21.30
2018-12-26T15:17:13.522Z,27.30
2018-12-26T15:19:41.286Z,23.67
2018-12-26T15:22:09.143Z,21.50
2018-12-26T15:24:39.613Z,21.17
2018-12-26T15:27:07.244Z,20.63
2018-12-26T15:29:35.214Z,19.47
2018-12-26T15:32:02.806Z,21.57
2018-12-26T15:34:30.540Z,21.23
2018-12-26T15:36:58.068Z,20.53
2018-12-26T15:39:25.536Z,20.60
2018-12-26T15:41:53.092Z,20.90
2018-12-26T15:44:20.585Z,21.47
2018-12-26T15:46:48.069Z,20.87
2018-12-26T15:49:16.146Z,19.73
2018-12-26T15:51:43.732Z,21.17
2018-12-26T15:54:11.238Z,20.80
2018-12-26T15:56:38.786Z,21.43
2018-12-26T15:59:06.448Z,23.47
2018-12-26T16:01:34.368Z,19.47
2018-12-26T16:04:01.945Z,20.57
2018-12-26T16:06:30.125Z,20.53
2018-12-26T16:08:58.095Z,19.67
2018-12-26T16:11:25.703Z,19.53
2018-12-26T16:13:53.319Z,20.57
2018-12-26T16:16:20.919Z,19.57
2018-12-26T16:18:48.580Z,19.67
2018-12-26T16:21:16.406Z,21.10
2018-12-26T16:23:44.938Z,19.73
2018-12-26T16:26:12.472Z,21.63
2018-12-26T16:28:40.079Z,22.53
2018-12-26T16:31:07.557Z,17.70
2018-12-26T16:33:37.881Z,23.30
2018-12-26T16:36:05.361Z,22.13
2018-12-26T16:38:32.912Z,23.80
2018-12-26T16:41:00.393Z,23.33
2018-12-26T16:43:27.859Z,24.07
2018-12-26T16:45:55.368Z,26.10
2018-12-26T16:48:45.677Z,21.07
2018-12-26T16:51:16.941Z,21.30
2018-12-26T16:53:44.453Z,24.17
2018-12-26T16:56:11.936Z,25.47
2018-12-26T16:58:39.478Z,22.33
2018-12-26T17:01:06.986Z,24.90
2018-12-26T17:03:36.939Z,23.27
2018-12-26T17:06:04.468Z,26.70
2018-12-26T17:08:31.959Z,23.77
2018-12-26T17:10:59.551Z,24.30
2018-12-26T17:13:27.420Z,21.63
2018-12-26T17:15:54.906Z,22.53
2018-12-26T17:18:22.383Z,22.30
2018-12-26T17:20:49.954Z,20.37
2018-12-26T17:23:17.453Z,20.53
2018-12-26T17:25:44.960Z,25.13
2018-12-26T17:28:12.455Z,25.83
2018-12-26T17:30:39.965Z,24.97
2018-12-26T17:33:07.490Z,23.93
2018-12-26T17:35:37.230Z,29.63
2018-12-26T17:38:04.743Z,25.53
2018-12-26T17:40:32.205Z,25.67
2018-12-26T17:43:00.744Z,25.60
2018-12-26T17:45:28.217Z,26.43
2018-12-26T17:48:00.818Z,25.60
2018-12-26T17:50:57.208Z,26.20
2018-12-26T17:53:55.814Z,24.50
2018-12-26T17:56:31.841Z,26.50
2018-12-26T17:59:23.799Z,25.17
2018-12-26T18:02:03.116Z,23.03
2018-12-26T18:04:30.702Z,25.37
2018-12-26T18:07:00.234Z,25.53
2018-12-26T18:09:29.775Z,26.30
2018-12-26T18:12:11.223Z,26.03
2018-12-26T18:14:28.875Z,24.23
2018-12-26T18:16:58.752Z,25.70
2018-12-26T18:19:26.554Z,25.77
2018-12-26T18:21:55.216Z,25.00
2018-12-26T18:24:22.746Z,26.17
2018-12-26T18:26:52.390Z,23.70
2018-12-26T18:29:21.174Z,25.43
2018-12-26T18:31:48.658Z,24.70
2018-12-26T18:34:18.443Z,24.97
2018-12-26T18:36:47.970Z,22.23
2018-12-26T18:39:15.551Z,25.33
2018-12-26T18:41:43.114Z,25.37
2018-12-26T18:44:10.688Z,26.10
2018-12-26T18:46:41.271Z,25.63
2018-12-26T18:49:11.585Z,24.70
2018-12-26T18:51:41.636Z,24.07
2018-12-26T18:54:09.067Z,24.63
2018-12-26T18:56:38.599Z,24.90
2018-12-26T18:59:06.425Z,25.30
2018-12-26T19:01:35.974Z,26.23
2018-12-26T19:04:03.480Z,24.40
2018-12-26T19:06:30.996Z,24.87
2018-12-26T19:09:06.112Z,25.17
2018-12-26T19:11:33.654Z,26.33
2018-12-26T19:14:03.195Z,25.73
2018-12-26T19:16:32.880Z,18.97
2018-12-26T19:19:00.683Z,27.50
2018-12-26T19:21:30.533Z,22.23
2018-12-26T19:23:58.087Z,27.80
2018-12-26T19:26:29.624Z,28.13
2018-12-26T19:28:57.212Z,27.47
2018-12-26T19:31:24.759Z,26.17
2018-12-26T19:33:54.399Z,25.60
2018-12-26T19:36:22.408Z,23.40
2018-12-26T19:38:49.947Z,25.87
2018-12-26T19:41:20.757Z,28.90
2018-12-26T19:43:48.490Z,26.80
2018-12-26T19:46:16.064Z,27.87
2018-12-26T19:48:43.688Z,27.60
2018-12-26T19:51:11.196Z,27.77
2018-12-26T19:53:58.457Z,26.43
2018-12-26T19:56:26.438Z,26.73
2018-12-26T19:58:54.074Z,26.57
2018-12-26T20:01:21.612Z,26.93
2018-12-26T20:03:49.180Z,26.43
2018-12-26T20:06:16.743Z,26.23
2018-12-26T20:08:47.524Z,28.00
2018-12-26T20:11:15.317Z,27.50
2018-12-26T20:13:42.905Z,26.90
2018-12-26T20:16:10.475Z,25.07
2018-12-26T20:18:38.101Z,26.07
2018-12-26T20:21:05.894Z,24.97
2018-12-26T20:23:33.464Z,24.70
2018-12-26T20:26:01.024Z,25.33
2018-12-26T20:28:28.556Z,24.30
2018-12-26T20:30:56.624Z,25.57
2018-12-26T20:33:24.137Z,26.90
2018-12-26T20:35:52.588Z,26.97
2018-12-26T20:38:20.576Z,26.07
2018-12-26T20:40:48.077Z,27.03
2018-12-26T20:43:15.639Z,26.37
2018-12-26T20:45:43.387Z,26.97
2018-12-26T20:48:10.903Z,26.07
2018-12-26T20:50:38.692Z,26.83
2018-12-26T20:53:06.232Z,25.07
2018-12-26T20:55:33.847Z,25.97
2018-12-26T20:58:01.448Z,26.87
2018-12-26T21:00:28.965Z,26.63
2018-12-26T21:02:56.481Z,25.97
2018-12-26T21:05:24.117Z,26.53
2018-12-26T21:08:02.336Z,24.27
2018-12-26T21:10:30.062Z,26.20
2018-12-26T21:12:57.685Z,25.67
2018-12-26T21:15:25.178Z,27.43
2018-12-26T21:17:52.683Z,24.53
2018-12-26T21:20:20.302Z,25.83
2018-12-26T21:22:47.960Z,25.20
2018-12-26T21:25:15.543Z,24.87
2018-12-26T21:27:43.001Z,24.73
2018-12-26T21:30:13.342Z,24.33
2018-12-26T21:32:41.203Z,27.10
2018-12-26T21:35:08.778Z,26.20
2018-12-26T21:37:36.340Z,26.50
2018-12-26T21:40:04.590Z,24.60
2018-12-26T21:42:32.202Z,26.20
2018-12-26T21:44:59.843Z,27.07
2018-12-26T21:47:27.458Z,25.33
2018-12-26T21:49:55.324Z,24.33
2018-12-26T21:52:22.847Z,26.00
2018-12-26T21:54:50.413Z,24.67
2018-12-26T21:57:17.941Z,23.77
2018-12-26T21:59:45.627Z,24.47
2018-12-26T22:02:22.196Z,22.73
2018-12-26T22:04:43.663Z,22.53
2018-12-26T22:07:13.661Z,23.13
2018-12-26T22:09:41.515Z,21.97
2018-12-26T22:12:09.632Z,42.07
2018-12-26T22:14:40.942Z,25.40
2018-12-26T22:17:09.596Z,21.00
2018-12-26T22:19:37.576Z,21.33
2018-12-26T22:22:05.342Z,22.07
2018-12-26T22:24:33.160Z,21.20
2018-12-26T22:27:01.099Z,23.13
2018-12-26T22:29:28.649Z,23.10
2018-12-26T22:31:58.372Z,23.63
2018-12-26T22:34:26.334Z,21.63
2018-12-26T22:36:56.061Z,21.73
2018-12-26T22:39:23.847Z,20.57
2018-12-26T22:41:51.410Z,23.40
2018-12-26T22:44:19.103Z,23.20
2018-12-26T22:46:46.799Z,21.67
2018-12-26T22:49:14.628Z,24.13
2018-12-26T22:51:44.060Z,22.70
2018-12-26T22:54:11.470Z,22.77
2018-12-26T22:56:39.049Z,22.70
2018-12-26T22:59:06.609Z,23.67
2018-12-26T23:01:34.230Z,22.57
2018-12-26T23:04:02.059Z,22.30
2018-12-26T23:06:29.805Z,22.33
2018-12-26T23:08:57.477Z,22.27
2018-12-26T23:11:25.176Z,23.30
2018-12-26T23:13:52.855Z,24.83
2018-12-26T23:16:20.613Z,23.90
2018-12-26T23:18:49.282Z,22.83
2018-12-26T23:21:16.798Z,23.47
2018-12-26T23:23:44.432Z,22.93
2018-12-26T23:26:12.020Z,20.40
2018-12-26T23:28:39.756Z,21.50
2018-12-26T23:31:07.324Z,22.93
2018-12-26T23:33:34.816Z,22.20
2018-12-26T23:36:02.499Z,22.93
2018-12-26T23:38:29.981Z,22.67
2018-12-26T23:40:57.907Z,23.30
2018-12-26T23:43:25.536Z,24.27
2018-12-26T23:45:55.332Z,23.30
2018-12-26T23:48:23.126Z,25.43
2018-12-26T23:50:50.869Z,23.97
2018-12-26T23:53:19.749Z,22.33
2018-12-26T23:55:47.231Z,22.97
2018-12-26T23:58:15.192Z,22.23
